createdAt,value
2019-03-23T00:01:58.632Z,20.50
2019-03-23T00:04:28.930Z,21.90
2019-03-23T00:06:59.363Z,22.77
2019-03-23T00:09:29.654Z,22.10
2019-03-23T00:12:00.399Z,20.60
2019-03-23T00:14:30.720Z,21.87
2019-03-23T00:17:01.071Z,19.63
2019-03-23T00:19:32.840Z,20.70
2019-03-23T00:22:03.188Z,21.13
2019-03-23T00:24:33.864Z,20.70
2019-03-23T00:27:04.290Z,22.77
2019-03-23T00:29:34.616Z,20.70
2019-03-23T00:32:05.046Z,21.70
2019-03-23T00:34:34.831Z,21.47
2019-03-23T00:37:05.482Z,21.27
2019-03-23T00:39:36.815Z,20.43
2019-03-23T00:42:07.116Z,22.50
2019-03-23T00:44:37.373Z,22.07
2019-03-23T00:47:07.736Z,22.77
2019-03-23T00:49:37.279Z,22.50
2019-03-23T00:52:07.797Z,21.83
2019-03-23T00:54:38.935Z,22.10
2019-03-23T00:57:08.528Z,22.13
2019-03-23T00:59:38.744Z,23.33
2019-03-23T01:02:09.318Z,23.20
2019-03-23T01:04:38.830Z,23.10
2019-03-23T01:07:09.100Z,23.00
2019-03-23T01:09:39.420Z,22.60
2019-03-23T01:12:09.775Z,21.90
2019-03-23T01:14:40.039Z,22.80
2019-03-23T01:17:10.335Z,22.30
2019-03-23T01:19:40.591Z,23.73
2019-03-23T01:22:10.899Z,22.60
2019-03-23T01:24:40.430Z,22.87
2019-03-23T01:27:10.014Z,22.87
2019-03-23T01:29:40.374Z,22.03
2019-03-23T01:32:10.834Z,22.73
2019-03-23T01:34:40.620Z,22.03
2019-03-23T01:37:10.886Z,22.67
2019-03-23T01:39:41.446Z,23.37
2019-03-23T01:42:11.682Z,23.07
2019-03-23T01:44:42.103Z,23.57
2019-03-23T01:47:13.320Z,23.83
2019-03-23T01:49:43.872Z,23.53
2019-03-23T01:52:14.540Z,23.80
2019-03-23T01:54:44.338Z,23.37
2019-03-23T01:57:14.952Z,23.57
2019-03-23T01:59:44.682Z,24.07
2019-03-23T02:02:14.599Z,25.53
2019-03-23T02:04:47.145Z,25.90
2019-03-23T02:07:17.211Z,25.77
2019-03-23T02:09:47.347Z,24.23
2019-03-23T02:12:17.588Z,25.80
2019-03-23T02:14:47.832Z,25.90
2019-03-23T02:17:18.030Z,25.77
2019-03-23T02:19:48.548Z,25.30
2019-03-23T02:22:18.645Z,25.40
2019-03-23T02:24:48.115Z,26.70
2019-03-23T02:27:18.225Z,26.93
2019-03-23T02:29:47.837Z,26.27
2019-03-23T02:32:17.974Z,27.87
2019-03-23T02:34:48.221Z,28.40
2019-03-23T02:37:27.740Z,28.13
2019-03-23T02:39:49.621Z,30.07
2019-03-23T02:42:19.831Z,29.03
2019-03-23T02:44:50.077Z,28.67
2019-03-23T02:47:20.420Z,29.37
2019-03-23T02:49:49.925Z,29.07
2019-03-23T02:52:20.088Z,28.03
2019-03-23T02:54:50.441Z,29.97
2019-03-23T02:57:20.056Z,29.00
2019-03-23T02:59:50.211Z,30.13
2019-03-23T03:02:20.438Z,29.40
2019-03-23T03:04:50.737Z,29.30
2019-03-23T03:07:21.007Z,29.90
2019-03-23T03:09:50.533Z,30.37
2019-03-23T03:12:20.770Z,30.47
2019-03-23T03:14:51.007Z,30.80
2019-03-23T03:17:20.636Z,30.50
2019-03-23T03:19:54.813Z,29.67
2019-03-23T03:22:25.015Z,30.50
2019-03-23T03:24:55.253Z,31.17
2019-03-23T03:27:25.505Z,31.67
2019-03-23T03:29:55.704Z,31.80
2019-03-23T03:32:25.997Z,32.30
2019-03-23T03:34:55.605Z,33.50
2019-03-23T03:37:25.727Z,31.70
2019-03-23T03:39:55.980Z,32.23
2019-03-23T03:42:25.667Z,33.07
2019-03-23T03:44:55.754Z,33.70
2019-03-23T03:47:25.973Z,33.60
2019-03-23T03:49:56.195Z,33.17
2019-03-23T03:52:25.692Z,32.00
2019-03-23T03:54:55.847Z,33.47
2019-03-23T03:57:26.093Z,33.07
2019-03-23T03:59:56.522Z,32.97
2019-03-23T04:02:26.013Z,33.47
2019-03-23T04:04:56.126Z,31.83
2019-03-23T04:07:25.608Z,33.83
2019-03-23T04:09:55.745Z,32.60
2019-03-23T04:12:26.148Z,33.43
2019-03-23T04:14:56.350Z,32.60
2019-03-23T04:17:26.568Z,32.63
2019-03-23T04:19:56.089Z,31.83
2019-03-23T04:22:25.575Z,33.80
2019-03-23T04:24:55.744Z,33.87
2019-03-23T04:27:25.974Z,34.13
2019-03-23T04:29:55.563Z,33.67
2019-03-23T04:32:24.990Z,33.80
2019-03-23T04:34:54.430Z,34.63
2019-03-23T04:37:23.821Z,34.83
2019-03-23T04:39:54.002Z,34.57
2019-03-23T04:42:24.177Z,34.07
2019-03-23T04:44:54.384Z,35.07
2019-03-23T04:47:24.252Z,34.83
2019-03-23T04:49:54.382Z,34.27
2019-03-23T04:52:24.692Z,33.37
2019-03-23T04:54:54.185Z,33.97
2019-03-23T04:57:24.311Z,33.47
2019-03-23T04:59:53.998Z,35.27
2019-03-23T05:02:24.119Z,35.43
2019-03-23T05:04:54.283Z,34.97
2019-03-23T05:07:24.574Z,35.40
2019-03-23T05:09:54.776Z,34.60
2019-03-23T05:12:24.280Z,36.10
2019-03-23T05:14:53.808Z,36.10
2019-03-23T05:17:23.906Z,36.13
2019-03-23T05:19:53.396Z,36.67
2019-03-23T05:22:23.799Z,38.63
2019-03-23T05:24:54.011Z,37.67
2019-03-23T05:27:24.395Z,36.43
2019-03-23T05:29:53.996Z,37.33
2019-03-23T05:32:24.126Z,37.13
2019-03-23T05:34:54.387Z,36.47
2019-03-23T05:37:24.576Z,36.60
2019-03-23T05:39:55.097Z,37.10
2019-03-23T05:42:25.312Z,37.37
2019-03-23T05:44:55.498Z,38.17
2019-03-23T05:47:25.668Z,38.23
2019-03-23T05:49:55.850Z,38.07
2019-03-23T05:52:26.041Z,37.93
2019-03-23T05:54:56.224Z,38.77
2019-03-23T05:57:26.414Z,36.47
2019-03-23T05:59:56.621Z,40.07
2019-03-23T06:02:26.086Z,38.30
2019-03-23T06:04:55.493Z,38.13
2019-03-23T06:07:25.053Z,37.37
2019-03-23T06:09:55.140Z,37.80
2019-03-23T06:12:24.627Z,39.10
2019-03-23T06:14:54.877Z,38.27
2019-03-23T06:17:25.209Z,38.23
2019-03-23T06:19:55.407Z,38.23
2019-03-23T06:22:24.802Z,37.63
2019-03-23T06:24:54.189Z,38.77
2019-03-23T06:27:23.615Z,37.93
2019-03-23T06:29:53.679Z,38.87
2019-03-23T06:32:23.905Z,38.37
2019-03-23T06:34:54.109Z,38.37
2019-03-23T06:37:24.334Z,38.47
2019-03-23T06:39:54.565Z,38.00
2019-03-23T06:42:24.740Z,38.77
2019-03-23T06:44:54.907Z,40.07
2019-03-23T06:47:25.095Z,38.27
2019-03-23T06:49:54.609Z,38.53
2019-03-23T06:52:24.737Z,39.40
2019-03-23T06:54:54.314Z,39.83
2019-03-23T06:57:24.745Z,39.90
2019-03-23T06:59:54.266Z,40.37
2019-03-23T07:02:24.477Z,39.73
2019-03-23T07:04:54.639Z,41.23
2019-03-23T07:07:24.869Z,39.90
2019-03-23T07:09:55.340Z,40.50
2019-03-23T07:12:25.694Z,39.23
2019-03-23T07:14:55.162Z,39.87
2019-03-23T07:17:24.807Z,40.73
2019-03-23T07:19:54.264Z,42.33
2019-03-23T07:22:23.784Z,40.23
2019-03-23T07:24:53.189Z,42.37
2019-03-23T07:27:22.626Z,42.30
2019-03-23T07:29:52.069Z,41.57
2019-03-23T07:32:22.489Z,42.27
2019-03-23T07:34:52.747Z,41.77
2019-03-23T07:37:22.274Z,43.03
2019-03-23T07:39:51.709Z,44.13
2019-03-23T07:42:21.300Z,42.80
2019-03-23T07:44:50.931Z,41.63
2019-03-23T07:47:21.074Z,41.27
2019-03-23T07:49:50.693Z,42.37
2019-03-23T07:52:20.118Z,41.60
2019-03-23T07:54:50.199Z,42.90
2019-03-23T07:57:20.387Z,41.10
2019-03-23T07:59:49.870Z,42.50
2019-03-23T08:02:20.025Z,41.00
2019-03-23T08:04:50.939Z,40.90
2019-03-23T08:07:20.681Z,41.60
2019-03-23T08:09:50.893Z,41.73
2019-03-23T08:12:20.648Z,40.90
2019-03-23T08:14:50.080Z,40.17
2019-03-23T08:17:19.555Z,42.23
2019-03-23T08:19:49.939Z,42.13
2019-03-23T08:22:20.279Z,40.97
2019-03-23T08:24:50.579Z,41.40
2019-03-23T08:27:20.214Z,41.17
2019-03-23T08:29:50.385Z,41.67
2019-03-23T08:32:22.163Z,40.93
2019-03-23T08:34:52.478Z,40.57
2019-03-23T08:37:22.721Z,39.67
2019-03-23T08:39:52.944Z,39.27
2019-03-23T08:42:23.203Z,40.87
2019-03-23T08:44:52.782Z,39.63
2019-03-23T08:47:22.958Z,39.47
2019-03-23T08:49:53.157Z,38.97
2019-03-23T08:52:22.723Z,33.90
2019-03-23T08:54:53.957Z,33.50
2019-03-23T08:57:24.362Z,33.10
2019-03-23T08:59:53.899Z,32.57
2019-03-23T09:02:24.002Z,31.37
2019-03-23T09:04:53.570Z,32.47
2019-03-23T09:07:23.657Z,29.17
2019-03-23T09:09:59.148Z,28.37
2019-03-23T09:12:25.013Z,27.50
2019-03-23T09:14:54.442Z,33.80
2019-03-23T09:17:24.566Z,33.37
2019-03-23T09:19:54.850Z,32.10
2019-03-23T09:22:25.066Z,27.57
2019-03-23T09:24:57.130Z,27.47
2019-03-23T09:27:26.330Z,26.90
2019-03-23T09:29:56.553Z,27.13
2019-03-23T09:32:26.794Z,26.20
2019-03-23T09:34:56.409Z,27.00
2019-03-23T09:37:25.850Z,27.13
2019-03-23T09:39:56.112Z,26.87
2019-03-23T09:42:25.618Z,25.90
2019-03-23T09:44:55.101Z,27.30
2019-03-23T09:47:25.198Z,26.47
2019-03-23T09:49:55.544Z,25.70
2019-03-23T09:52:25.005Z,25.53
2019-03-23T09:54:54.656Z,24.03
2019-03-23T09:57:24.131Z,25.50
2019-03-23T09:59:54.213Z,25.40
2019-03-23T10:02:24.337Z,24.50
2019-03-23T10:04:54.442Z,24.50
2019-03-23T10:07:24.673Z,25.67
2019-03-23T10:09:54.952Z,26.37
2019-03-23T10:12:25.259Z,25.87
2019-03-23T10:14:55.441Z,26.50
2019-03-23T10:17:25.641Z,30.93
2019-03-23T10:19:55.963Z,26.57
2019-03-23T10:22:25.908Z,26.37
2019-03-23T10:24:56.212Z,26.07
2019-03-23T10:27:26.390Z,26.53
2019-03-23T10:29:56.801Z,26.43
2019-03-23T10:32:26.317Z,27.50
2019-03-23T10:34:55.725Z,28.80
2019-03-23T10:37:26.195Z,28.13
2019-03-23T10:39:55.853Z,28.00
2019-03-23T10:42:25.967Z,26.47
2019-03-23T10:44:56.161Z,28.50
2019-03-23T10:47:26.462Z,26.23
2019-03-23T10:49:56.747Z,24.10
2019-03-23T10:52:26.303Z,24.33
2019-03-23T10:54:59.926Z,24.73
2019-03-23T10:57:31.939Z,25.67
2019-03-23T11:00:01.776Z,24.67
2019-03-23T11:02:31.362Z,23.57
2019-03-23T11:05:00.770Z,23.97
2019-03-23T11:07:31.910Z,23.93
2019-03-23T11:10:01.420Z,24.70
2019-03-23T11:12:32.230Z,24.83
2019-03-23T11:15:02.454Z,25.40
2019-03-23T11:17:32.779Z,28.37
2019-03-23T11:20:03.104Z,28.87
2019-03-23T11:22:33.411Z,26.80
2019-03-23T11:25:03.997Z,25.53
2019-03-23T11:27:34.563Z,23.97
2019-03-23T11:30:04.487Z,23.77
2019-03-23T11:32:34.890Z,23.40
2019-03-23T11:35:04.759Z,24.53
2019-03-23T11:37:35.137Z,24.00
2019-03-23T11:40:05.008Z,22.47
2019-03-23T11:42:34.481Z,20.90
2019-03-23T11:45:04.073Z,21.80
2019-03-23T11:47:34.166Z,22.93
2019-03-23T11:50:04.910Z,22.47
2019-03-23T11:52:36.073Z,23.17
2019-03-23T11:55:07.302Z,22.50
2019-03-23T11:57:37.551Z,20.43
2019-03-23T12:00:10.338Z,21.67
2019-03-23T12:02:40.006Z,21.00
2019-03-23T12:05:10.415Z,26.63
2019-03-23T12:07:40.791Z,23.43
2019-03-23T12:10:11.275Z,24.13
2019-03-23T12:12:41.495Z,21.27
2019-03-23T12:15:11.447Z,21.13
2019-03-23T12:17:40.857Z,21.30
2019-03-23T12:20:12.095Z,21.23
2019-03-23T12:22:42.584Z,22.30
2019-03-23T12:25:12.285Z,21.60
2019-03-23T12:27:42.511Z,20.77
2019-03-23T12:30:14.620Z,20.97
2019-03-23T12:32:44.907Z,21.40
2019-03-23T12:35:14.365Z,23.60
2019-03-23T12:37:44.591Z,21.33
2019-03-23T12:40:15.163Z,22.00
2019-03-23T12:42:45.808Z,21.00
2019-03-23T12:45:16.260Z,20.60
2019-03-23T12:47:46.515Z,20.30
2019-03-23T12:50:16.766Z,20.60
2019-03-23T12:55:12.460Z,19.83
2019-03-23T12:57:42.017Z,21.60
2019-03-23T13:00:13.147Z,22.43
2019-03-23T13:02:42.678Z,20.17
2019-03-23T13:05:13.352Z,20.80
2019-03-23T13:07:42.912Z,21.23
2019-03-23T13:10:13.357Z,21.30
2019-03-23T13:12:43.664Z,19.83
2019-03-23T13:15:14.397Z,20.63
2019-03-23T13:17:44.594Z,21.17
2019-03-23T13:20:14.963Z,20.73
2019-03-23T13:22:44.545Z,21.73
2019-03-23T13:25:14.081Z,21.10
2019-03-23T13:27:44.248Z,20.27
2019-03-23T13:30:15.524Z,19.90
2019-03-23T13:32:45.258Z,20.77
2019-03-23T13:35:14.831Z,20.63
2019-03-23T13:37:45.358Z,22.33
2019-03-23T13:40:16.203Z,19.97
2019-03-23T13:42:46.464Z,20.37
2019-03-23T13:45:17.342Z,19.87
2019-03-23T13:47:47.838Z,20.57
2019-03-23T13:50:26.219Z,19.33
2019-03-23T13:52:56.410Z,18.93
2019-03-23T13:55:28.016Z,17.17
2019-03-23T13:58:08.682Z,15.33
2019-03-23T14:00:39.586Z,14.17
2019-03-23T14:03:09.158Z,13.73
2019-03-23T14:05:38.723Z,13.97
2019-03-23T14:08:08.244Z,13.43
2019-03-23T14:10:37.738Z,12.67
2019-03-23T14:13:08.022Z,11.90
2019-03-23T14:15:38.276Z,10.73
2019-03-23T14:18:08.526Z,10.60
2019-03-23T14:20:38.774Z,10.50
2019-03-23T14:23:08.456Z,10.80
2019-03-23T14:25:38.018Z,9.73
2019-03-23T14:28:08.359Z,10.37
2019-03-23T14:30:45.464Z,10.73
2019-03-23T14:33:15.089Z,10.50
2019-03-23T14:35:44.644Z,10.33
2019-03-23T14:38:14.897Z,10.33
2019-03-23T14:40:45.177Z,10.70
2019-03-23T14:43:15.934Z,10.63
2019-03-23T14:45:46.359Z,10.27
2019-03-23T14:48:16.796Z,9.70
2019-03-23T14:50:47.096Z,8.13
2019-03-23T14:53:16.607Z,8.80
2019-03-23T14:55:47.234Z,8.50
2019-03-23T14:58:17.408Z,9.17
2019-03-23T15:00:47.613Z,9.03
2019-03-23T15:03:17.824Z,8.77
2019-03-23T15:05:47.409Z,10.33
2019-03-23T15:08:16.881Z,9.73
2019-03-23T15:10:47.064Z,9.23
2019-03-23T15:13:17.329Z,8.80
2019-03-23T15:15:47.940Z,7.80
2019-03-23T15:18:18.028Z,7.57
2019-03-23T15:20:48.314Z,6.77
2019-03-23T15:23:18.494Z,7.53
2019-03-23T15:25:48.276Z,6.90
2019-03-23T15:28:17.810Z,7.33
2019-03-23T15:30:48.031Z,7.63
2019-03-23T15:33:18.394Z,8.47
2019-03-23T15:35:48.965Z,7.97
2019-03-23T15:38:18.710Z,8.07
2019-03-23T15:40:48.843Z,8.30
2019-03-23T15:43:19.191Z,8.37
2019-03-23T15:45:48.787Z,9.00
2019-03-23T15:48:18.920Z,9.20
2019-03-23T15:50:49.105Z,9.83
2019-03-23T15:53:19.267Z,17.90
2019-03-23T15:55:48.762Z,15.10
2019-03-23T15:58:18.323Z,12.70
2019-03-23T16:00:48.433Z,10.10
2019-03-23T16:03:18.607Z,9.40
2019-03-23T16:05:48.907Z,10.40
2019-03-23T16:08:18.374Z,9.93
2019-03-23T16:10:47.839Z,10.27
2019-03-23T16:13:18.012Z,9.70
2019-03-23T16:15:47.728Z,10.80
2019-03-23T16:18:17.851Z,10.23
2019-03-23T16:20:48.074Z,10.03
2019-03-23T16:23:18.258Z,11.00
2019-03-23T16:25:47.814Z,10.07
2019-03-23T16:28:17.906Z,10.13
2019-03-23T16:30:48.161Z,10.57
2019-03-23T16:33:18.359Z,10.33
2019-03-23T16:35:48.579Z,9.80
2019-03-23T16:38:18.883Z,9.63
2019-03-23T16:40:49.217Z,8.93
2019-03-23T16:43:19.559Z,9.57
2019-03-23T16:45:50.542Z,8.67
2019-03-23T16:48:21.112Z,8.90
2019-03-23T16:50:51.663Z,9.03
2019-03-23T16:53:21.896Z,9.27
2019-03-23T16:55:52.188Z,10.40
2019-03-23T16:58:22.373Z,19.73
2019-03-23T17:00:52.741Z,14.13
2019-03-23T17:03:22.506Z,12.20
2019-03-23T17:05:52.887Z,9.10
2019-03-23T17:08:23.253Z,10.30
2019-03-23T17:10:53.721Z,10.47
2019-03-23T17:13:24.098Z,10.77
2019-03-23T17:15:55.144Z,10.17
2019-03-23T17:18:25.614Z,10.33
2019-03-23T17:20:56.018Z,9.03
2019-03-23T17:23:26.416Z,9.97
2019-03-23T17:25:56.834Z,7.93
2019-03-23T17:28:26.303Z,7.37
2019-03-23T17:30:56.552Z,6.97
2019-03-23T17:33:26.896Z,6.20
2019-03-23T17:35:56.564Z,6.50
2019-03-23T17:38:26.902Z,6.47
2019-03-23T17:40:57.715Z,5.80
2019-03-23T17:43:27.328Z,5.47
2019-03-23T17:45:57.036Z,5.57
2019-03-23T17:48:29.093Z,5.13
2019-03-23T17:50:59.463Z,5.47
2019-03-23T17:53:29.825Z,5.43
2019-03-23T17:56:00.584Z,5.27
2019-03-23T17:58:30.127Z,6.43
2019-03-23T18:01:01.215Z,6.00
2019-03-23T18:03:30.783Z,6.93
2019-03-23T18:06:01.014Z,5.63
2019-03-23T18:08:31.517Z,6.80
2019-03-23T18:11:01.276Z,6.73
2019-03-23T18:13:31.562Z,6.83
2019-03-23T18:16:01.820Z,6.20
2019-03-23T18:18:33.730Z,6.80
2019-03-23T18:21:04.134Z,5.57
2019-03-23T18:23:34.453Z,6.40
2019-03-23T18:26:05.192Z,9.63
2019-03-23T18:28:35.535Z,6.60
2019-03-23T18:31:05.813Z,7.03
2019-03-23T18:33:36.078Z,7.03
2019-03-23T18:36:06.298Z,8.37
2019-03-23T18:38:36.469Z,7.27
2019-03-23T18:41:06.094Z,7.73
2019-03-23T18:43:35.632Z,7.40
2019-03-23T18:46:05.916Z,7.70
2019-03-23T18:48:36.235Z,7.60
2019-03-23T18:51:05.988Z,8.23
2019-03-23T18:53:36.170Z,8.50
2019-03-23T18:56:06.431Z,8.40
2019-03-23T18:58:36.778Z,8.50
2019-03-23T19:01:06.330Z,8.17
2019-03-23T19:03:35.750Z,8.30
2019-03-23T19:06:05.902Z,9.17
2019-03-23T19:08:36.770Z,9.13
2019-03-23T19:11:06.324Z,9.37
2019-03-23T19:13:38.117Z,9.17
2019-03-23T19:16:08.565Z,8.10
2019-03-23T19:18:38.914Z,9.97
2019-03-23T19:21:09.158Z,12.20
2019-03-23T19:23:39.603Z,10.23
2019-03-23T19:26:09.990Z,8.33
2019-03-23T19:28:40.374Z,8.70
2019-03-23T19:31:11.766Z,7.90
2019-03-23T19:33:42.051Z,7.67
2019-03-23T19:36:11.548Z,7.40
2019-03-23T19:38:42.279Z,8.30
2019-03-23T19:41:12.670Z,7.30
2019-03-23T19:43:48.854Z,6.20
2019-03-23T19:46:14.361Z,7.07
2019-03-23T19:48:46.063Z,6.57
2019-03-23T19:51:17.272Z,7.10
2019-03-23T19:53:48.258Z,6.70
2019-03-23T19:56:26.430Z,6.63
2019-03-23T19:58:58.937Z,6.13
2019-03-23T20:01:28.899Z,5.90
2019-03-23T20:04:00.506Z,6.70
2019-03-23T20:06:30.965Z,6.30
2019-03-23T20:09:01.516Z,5.47
2019-03-23T20:11:33.692Z,5.63
2019-03-23T20:14:04.320Z,5.97
2019-03-23T20:16:34.870Z,6.40
2019-03-23T20:19:05.521Z,5.00
2019-03-23T20:21:35.187Z,5.30
2019-03-23T20:24:05.351Z,6.27
2019-03-23T20:26:36.040Z,5.97
2019-03-23T20:29:06.280Z,5.37
2019-03-23T20:31:36.968Z,11.23
2019-03-23T20:34:06.832Z,12.27
2019-03-23T20:36:36.433Z,9.97
2019-03-23T20:39:07.883Z,9.30
2019-03-23T20:41:40.210Z,5.60
2019-03-23T20:44:11.076Z,6.13
2019-03-23T20:46:41.578Z,5.63
2019-03-23T20:49:11.355Z,5.53
2019-03-23T20:51:41.824Z,4.67
2019-03-23T20:54:13.716Z,5.07
2019-03-23T20:56:43.834Z,5.00
2019-03-23T20:59:13.312Z,4.70
2019-03-23T21:01:43.841Z,4.10
2019-03-23T21:04:14.555Z,4.73
2019-03-23T21:06:45.410Z,4.40
2019-03-23T21:09:16.385Z,4.90
2019-03-23T21:11:46.258Z,4.50
2019-03-23T21:14:20.383Z,4.90
2019-03-23T21:16:49.092Z,5.43
2019-03-23T21:19:20.635Z,4.80
2019-03-23T21:21:51.789Z,4.70
2019-03-23T21:24:24.339Z,5.13
2019-03-23T21:26:56.399Z,5.40
2019-03-23T21:29:26.728Z,7.60
2019-03-23T21:31:56.294Z,13.70
2019-03-23T21:34:26.663Z,13.80
2019-03-23T21:36:56.996Z,16.77
2019-03-23T21:39:26.714Z,16.10
2019-03-23T21:41:56.186Z,7.10
2019-03-23T21:44:30.854Z,4.60
2019-03-23T21:46:58.602Z,4.90
2019-03-23T21:49:28.943Z,4.23
2019-03-23T21:51:59.524Z,4.70
2019-03-23T21:54:29.870Z,4.40
2019-03-23T21:57:00.371Z,4.33
2019-03-23T21:59:29.943Z,4.03
2019-03-23T22:02:00.339Z,5.93
2019-03-23T22:04:31.022Z,6.77
2019-03-23T22:07:00.611Z,5.83
2019-03-23T22:09:30.748Z,4.30
2019-03-23T22:12:00.983Z,4.47
2019-03-23T22:14:41.168Z,4.73
2019-03-23T22:17:02.403Z,5.00
2019-03-23T22:19:32.530Z,4.70
2019-03-23T22:22:02.777Z,5.23
2019-03-23T22:24:32.268Z,4.33
2019-03-23T22:27:02.411Z,3.70
2019-03-23T22:29:32.678Z,4.60
2019-03-23T22:32:02.230Z,4.60
2019-03-23T22:34:32.359Z,4.47
2019-03-23T22:37:02.857Z,4.37
2019-03-23T22:39:33.174Z,4.30
2019-03-23T22:42:03.646Z,4.17
2019-03-23T22:44:33.982Z,4.50
2019-03-23T22:47:04.313Z,4.77
2019-03-23T22:49:34.577Z,21.90
2019-03-23T22:52:04.948Z,7.53
2019-03-23T22:54:35.344Z,9.07
2019-03-23T22:57:04.972Z,6.00
2019-03-23T22:59:34.490Z,4.90
2019-03-23T23:02:05.531Z,3.13
2019-03-23T23:04:36.860Z,3.80
2019-03-23T23:07:07.051Z,3.67
2019-03-23T23:09:37.433Z,3.67
2019-03-23T23:12:08.042Z,3.17
2019-03-23T23:14:37.737Z,3.80
2019-03-23T23:17:07.936Z,3.70
2019-03-23T23:19:38.167Z,3.17
2019-03-23T23:22:07.880Z,3.30
2019-03-23T23:24:37.267Z,3.60
2019-03-23T23:27:07.446Z,3.67
2019-03-23T23:29:37.744Z,3.83
2019-03-23T23:32:08.125Z,3.33
2019-03-23T23:34:37.667Z,3.23
2019-03-23T23:37:07.831Z,3.50
2019-03-23T23:39:38.080Z,3.50
2019-03-23T23:42:08.299Z,4.47
2019-03-23T23:44:38.530Z,3.17
2019-03-23T23:47:08.803Z,3.87
2019-03-23T23:49:39.154Z,4.27
2019-03-23T23:52:09.698Z,3.43
2019-03-23T23:54:39.992Z,2.93
2019-03-23T23:57:09.506Z,3.57
2019-03-23T23:59:39.816Z,3.13
